• Join FlightAware (Why Join?)
  • Login
  • US Flag 
12:15PM EDT


 

Airport Tracker/Info


-or-


 

Live Flight TrackerFlight Track Log ✈ SWA3450 ✈ 09-Mar-2013 ✈ KBNA - KRSW

Flight Track Log - Related Links

Times and Time Zones

All times are in EST time to prevent confusion due to time zone crossing. See the SWA3450 flight status page for this flight to view local times or setup timezone preferences in your user account.

Time Position Orientation Groundspeed Altitude Reporting Facility
EST Latitude Longitude Course Direction KTS MPH feet Rate Location/Type
06:39PM 36.1000 -86.6833 180° South 144 166 1,600  Level Nashville TRACON
06:40PM 36.0667 -86.6833 180° South 194 223 2,800 2,700 Climbing Nashville TRACON
06:41PM 36.0000 -86.6833 180° South 247 284 6,000 3,300 Climbing Nashville TRACON
06:41PM 35.9633 -86.6511 145° Southeast 258 297 8,000 3,180 Climbing Memphis Center
06:42PM 35.9017 -86.6053 149° Southeast 296 341 11,000 3,180 Climbing Memphis Center
06:43PM 35.8206 -86.5425 148° Southeast 333 383 14,400 2,940 Climbing Memphis Center
06:44PM 35.7456 -86.4844 148° Southeast 353 406 16,900 2,460 Climbing Memphis Center
06:46PM 35.5450 -86.4253 167° South 392 451 21,900 2,460 Climbing Atlanta Center
06:47PM 35.4244 -86.3989 170° South 404 465 24,400 2,220 Climbing Atlanta Center
06:48PM 35.3083 -86.3572 164° South 420 483 26,400 1,980 Climbing Atlanta Center
06:49PM 35.1925 -86.3033 159° South 440 506 28,400 1,920 Climbing Atlanta Center
06:50PM 35.0869 -86.2547 159° South 445 512 30,300 1,980 Climbing Atlanta Center
06:51PM 34.9689 -86.2033 160° South 450 518 32,400 1,920 Climbing Atlanta Center
06:52PM 34.8511 -86.1497 160° South 450 518 34,200 1,200 Climbing Atlanta Center
06:53PM 34.7308 -86.0961 160° South 455 524 34,900 300 Climbing Atlanta Center
06:54PM 34.6128 -86.0453 160° South 455 524 34,900  Level Atlanta Center
06:55PM 34.4903 -85.9969 162° South 460 529 34,900  Level Atlanta Center
06:56PM 34.3681 -85.9439 160° South 460 529 35,000 960 Climbing Atlanta Center
06:57PM 34.2500 -85.8908 160° South 460 529 36,900 960 Climbing Atlanta Center
06:58PM 34.1317 -85.8431 162° South 460 529 37,000 780 Climbing Atlanta Center
06:59PM 34.0072 -85.7903 161° South 455 524 38,500 900 Climbing Atlanta Center
07:00PM 33.8889 -85.7431 162° South 449 517 38,900 180 Climbing Atlanta Center
07:01PM 33.7686 -85.6906 160° South 449 517 38,900  Level Atlanta Center
07:02PM 33.6522 -85.6408 160° South 449 517 38,900  Level Atlanta Center
07:03PM 33.5297 -85.5914 161° South 449 517 38,900  Level Atlanta Center
07:04PM 33.4136 -85.5419 160° South 455 524 38,900  Level Atlanta Center
07:05PM 33.3078 -85.4906 158° South 455 524 38,900  Level Atlanta Center
07:06PM 33.1725 -85.4411 163° South 461 531 38,900  Level Atlanta Center
07:07PM 33.0564 -85.3919 160° South 461 531 38,900  Level Atlanta Center
07:08PM 32.9503 -85.3433 159° South 461 531 38,900  Level Atlanta Center
07:09PM 32.8339 -85.2947 161° South 456 525 38,900  Level Atlanta Center
07:10PM 32.7092 -85.2386 159° South 456 525 38,900  Level Atlanta Center
07:11PM 32.5867 -85.1900 162° South 461 531 38,900  Level Atlanta Center
07:12PM 32.4661 -85.1417 161° South 461 531 38,900  Level Atlanta Center
07:13PM 32.3433 -85.0911 161° South 466 536 38,900  Level Atlanta Center
07:14PM 32.2081 -85.0453 164° South 461 531 38,900  Level Atlanta Center
07:15PM 32.0872 -84.9925 160° South 461 531 38,900  Level Atlanta Center
07:16PM 32.0286 -84.9633 157° South 483 556 38,900  Level Jacksonville Center
07:17PM 31.9247 -84.9217 161° South 461 531 38,900  Level Jacksonville Center
07:18PM 31.8025 -84.8750 162° South 456 525 38,900  Level Jacksonville Center
07:19PM 31.6819 -84.8261 161° South 456 525 38,900  Level Jacksonville Center
07:20PM 31.5636 -84.7797 162° South 456 525 38,900  Level Jacksonville Center
07:21PM 31.4433 -84.7286 160° South 458 527 38,900  Level Jacksonville Center
07:22PM 31.3231 -84.6800 161° South 458 527 38,900  Level Jacksonville Center
07:23PM 31.2047 -84.6269 159° South 458 527 38,900  Level Jacksonville Center
07:24PM 31.0886 -84.5642 155° Southeast 463 533 38,900  Level Jacksonville Center
07:25PM 30.9725 -84.5039 156° South 463 533 38,900  Level Jacksonville Center
07:26PM 30.8542 -84.4414 156° South 463 533 38,900  Level Jacksonville Center
07:27PM 30.7381 -84.3789 155° Southeast 463 533 38,900  Level Jacksonville Center
07:28PM 30.6197 -84.3167 156° South 463 533 38,900  Level Jacksonville Center
07:29PM 30.5078 -84.2572 155° Southeast 453 521 38,900  Level Jacksonville Center
07:30PM 30.3872 -84.1953 156° South 453 521 38,900  Level Jacksonville Center
07:31PM 30.2731 -84.1361 156° South 458 527 38,900  Level Jacksonville Center
07:32PM 30.1544 -84.0769 157° South 458 527 38,900  Level Jacksonville Center
07:33PM 30.0339 -84.0131 155° Southeast 458 527 38,900  Level Jacksonville Center
07:34PM 29.9156 -83.9517 156° South 458 527 38,900  Level Jacksonville Center
07:35PM 29.7969 -83.8883 155° Southeast 458 527 38,900  Level Jacksonville Center
07:36PM 29.6764 -83.8297 157° South 463 533 38,900  Level Jacksonville Center
07:37PM 29.5558 -83.7689 156° South 463 533 38,900  Level Jacksonville Center
07:38PM 29.4350 -83.7058 156° South 463 533 38,900  Level Jacksonville Center
07:39PM 29.3144 -83.6428 155° Southeast 475 547 38,900  Level Jacksonville Center
07:40PM 29.1917 -83.5778 155° Southeast 475 547 38,900  Level Jacksonville Center
07:41PM 29.0564 -83.5125 157° South 475 547 38,900  Level Jacksonville Center
07:42PM 28.9333 -83.4478 155° Southeast 480 552 38,900  Level Jacksonville Center
07:43PM 28.8106 -83.3878 157° South 480 552 38,900  Level Jacksonville Center
07:44PM 28.6897 -83.3256 156° South 480 552 38,900  Level Jacksonville Center
07:45PM 28.5647 -83.2636 156° South 480 552 38,900  Level Jacksonville Center
07:46PM 28.4417 -83.2042 157° South 480 552 38,900  Level Jacksonville Center
07:47PM 28.2889 -83.1292 157° South 488 562 38,900  Level Miami Center
07:48PM 28.1625 -83.0633 155° Southeast 500 575 38,900  Level Miami Center
07:49PM 28.0397 -83.0025 156° South 495 570 38,900 -300 Level Miami Center
07:50PM 27.9150 -82.9464 158° South 490 564 38,300 -2,100 Descending Miami Center
07:51PM 27.7972 -82.8697 150° Southeast 495 570 34,800 -3,900 Descending Miami Center
07:52PM 27.6667 -82.7972 154° Southeast 478 550 30,500 -3,840 Descending Miami Center
07:53PM 27.5589 -82.7331 152° Southeast 478 550 27,200 -3,000 Descending Miami Center
07:54PM 27.4428 -82.6642 152° Southeast 478 550 24,600 -2,760 Descending Miami Center
07:55PM 27.3183 -82.5925 153° Southeast 467 537 21,700 -2,520 Descending Miami Center
07:56PM 27.2225 -82.5339 151° Southeast 453 521 19,600 -2,280 Descending Miami Center
07:57PM 27.1164 -82.4706 152° Southeast 418 481 17,200 -2,400 Descending Miami Center
07:58PM 27.0225 -82.4169 153° Southeast 398 458 14,900 -2,340 Descending Miami Center
07:59PM 26.9306 -82.3661 154° Southeast 384 442 12,600 -1,800 Descending Miami Center
08:00PM 26.8428 -82.3131 152° Southeast 363 418 11,300 -1,140 Descending Miami Center
08:01PM 26.7694 -82.2656 150° Southeast 337 388 10,400 -1,140 Descending Miami Center
08:02PM 26.7025 -82.2114 144° Southeast 313 360 9,100 -1,440 Descending Miami Center
08:03PM 26.6378 -82.1594 144° Southeast 294 338 7,600 -1,500 Descending Miami Center
08:04PM 26.5747 -82.1103 145° Southeast 287 330 6,200 -1,380 Descending Miami Center
08:05PM 26.5292 -82.0408 126° Southeast 276 318 4,900 -1,260 Descending Miami Center
08:06PM 26.4856 -81.9811 129° Southeast 266 306 3,700 -780 Descending Miami Center
08:07PM 26.4519 -81.9286 126° Southeast 252 290 3,400 -300 Descending Miami Center
08:09PM 26.5333 -81.7500 50° Northeast  Level FlightAware Approximate
08:16PM 26.5362 -81.7552 50° Northeast  Level Estimated
08:17PM 26.5333 -81.7500 50° Northeast  Level FlightAware Approximate
08:18PM 26.5362 -81.7552 50° Northeast  Level Estimated
08:19PM 26.5333 -81.7500 50° Northeast  Level FlightAware Approximate
08:20PM 26.5362 -81.7552 50° Northeast  Level Estimated